sensor_id;sensor_type;location;lat;lon;timestamp;temperature;humidity
70271;SHT31;57680;54.292;18.598;2023-01-19T00:01:30;0.53;93.06
70271;SHT31;57680;54.292;18.598;2023-01-19T00:03:56;0.52;92.93
70271;SHT31;57680;54.292;18.598;2023-01-19T00:06:24;0.50;93.28
70271;SHT31;57680;54.292;18.598;2023-01-19T00:08:50;0.53;93.06
70271;SHT31;57680;54.292;18.598;2023-01-19T00:11:16;0.52;93.00
70271;SHT31;57680;54.292;18.598;2023-01-19T00:13:44;0.48;93.11
70271;SHT31;57680;54.292;18.598;2023-01-19T00:16:18;0.42;93.02
70271;SHT31;57680;54.292;18.598;2023-01-19T00:18:46;0.44;93.12
70271;SHT31;57680;54.292;18.598;2023-01-19T00:21:13;0.38;93.33
70271;SHT31;57680;54.292;18.598;2023-01-19T00:23:39;0.39;93.65
70271;SHT31;57680;54.292;18.598;2023-01-19T00:26:05;0.44;93.93
70271;SHT31;57680;54.292;18.598;2023-01-19T00:28:31;0.42;93.90
70271;SHT31;57680;54.292;18.598;2023-01-19T00:30:59;0.41;93.98
70271;SHT31;57680;54.292;18.598;2023-01-19T00:33:25;0.48;94.14
70271;SHT31;57680;54.292;18.598;2023-01-19T00:35:52;0.53;94.27
70271;SHT31;57680;54.292;18.598;2023-01-19T00:38:19;0.63;94.16
70271;SHT31;57680;54.292;18.598;2023-01-19T00:40:46;0.66;93.67
70271;SHT31;57680;54.292;18.598;2023-01-19T00:43:11;0.62;93.69
70271;SHT31;57680;54.292;18.598;2023-01-19T00:45:37;0.65;94.07
70271;SHT31;57680;54.292;18.598;2023-01-19T00:48:03;0.62;93.77
70271;SHT31;57680;54.292;18.598;2023-01-19T00:50:30;0.60;93.85
70271;SHT31;57680;54.292;18.598;2023-01-19T00:52:56;0.60;93.85
70271;SHT31;57680;54.292;18.598;2023-01-19T00:55:25;0.62;94.15
70271;SHT31;57680;54.292;18.598;2023-01-19T00:57:53;0.62;93.91
70271;SHT31;57680;54.292;18.598;2023-01-19T01:00:20;0.66;94.13
70271;SHT31;57680;54.292;18.598;2023-01-19T01:02:47;0.63;93.76
70271;SHT31;57680;54.292;18.598;2023-01-19T01:05:14;0.63;93.84
70271;SHT31;57680;54.292;18.598;2023-01-19T01:07:40;0.60;93.88
70271;SHT31;57680;54.292;18.598;2023-01-19T01:10:10;0.62;94.24
70271;SHT31;57680;54.292;18.598;2023-01-19T01:12:37;0.68;94.47
70271;SHT31;57680;54.292;18.598;2023-01-19T01:15:05;0.72;94.65
70271;SHT31;57680;54.292;18.598;2023-01-19T01:17:31;0.75;94.60
70271;SHT31;57680;54.292;18.598;2023-01-19T01:19:56;0.77;94.53
70271;SHT31;57680;54.292;18.598;2023-01-19T01:22:22;0.77;94.62
70271;SHT31;57680;54.292;18.598;2023-01-19T01:24:47;0.75;94.37
70271;SHT31;57680;54.292;18.598;2023-01-19T01:27:13;0.73;94.21
70271;SHT31;57680;54.292;18.598;2023-01-19T01:29:38;0.75;94.20
70271;SHT31;57680;54.292;18.598;2023-01-19T01:32:06;0.69;94.17
70271;SHT31;57680;54.292;18.598;2023-01-19T01:34:32;0.65;94.20
70271;SHT31;57680;54.292;18.598;2023-01-19T01:36:58;0.62;94.42
70271;SHT31;57680;54.292;18.598;2023-01-19T01:39:23;0.59;94.54
70271;SHT31;57680;54.292;18.598;2023-01-19T01:41:50;0.58;94.72
70271;SHT31;57680;54.292;18.598;2023-01-19T01:44:53;0.60;94.77
70271;SHT31;57680;54.292;18.598;2023-01-19T01:47:37;0.59;94.81
70271;SHT31;57680;54.292;18.598;2023-01-19T01:50:09;0.62;94.91
70271;SHT31;57680;54.292;18.598;2023-01-19T01:52:43;0.65;95.01
70271;SHT31;57680;54.292;18.598;2023-01-19T01:55:11;0.68;94.86
70271;SHT31;57680;54.292;18.598;2023-01-19T01:57:42;0.72;94.90
70271;SHT31;57680;54.292;18.598;2023-01-19T02:00:09;0.76;94.99
70271;SHT31;57680;54.292;18.598;2023-01-19T02:02:36;0.79;94.86
70271;SHT31;57680;54.292;18.598;2023-01-19T02:05:28;0.80;94.75
70271;SHT31;57680;54.292;18.598;2023-01-19T02:08:14;0.81;94.59
70271;SHT31;57680;54.292;18.598;2023-01-19T02:11:01;0.80;94.24
70271;SHT31;57680;54.292;18.598;2023-01-19T02:13:46;0.76;94.15
70271;SHT31;57680;54.292;18.598;2023-01-19T02:16:14;0.75;94.36
70271;SHT31;57680;54.292;18.598;2023-01-19T02:18:40;0.73;94.54
70271;SHT31;57680;54.292;18.598;2023-01-19T02:21:20;0.75;94.33
70271;SHT31;57680;54.292;18.598;2023-01-19T02:23:57;0.75;94.11
70271;SHT31;57680;54.292;18.598;2023-01-19T02:26:24;0.72;94.06
70271;SHT31;57680;54.292;18.598;2023-01-19T02:29:06;0.70;93.96
70271;SHT31;57680;54.292;18.598;2023-01-19T02:31:34;0.60;93.55
70271;SHT31;57680;54.292;18.598;2023-01-19T02:34:01;0.56;93.87
70271;SHT31;57680;54.292;18.598;2023-01-19T02:36:41;0.53;93.79
70271;SHT31;57680;54.292;18.598;2023-01-19T02:39:08;0.53;93.78
70271;SHT31;57680;54.292;18.598;2023-01-19T02:41:40;0.50;93.65
70271;SHT31;57680;54.292;18.598;2023-01-19T02:44:08;0.45;93.32
70271;SHT31;57680;54.292;18.598;2023-01-19T02:46:35;0.48;93.73
70271;SHT31;57680;54.292;18.598;2023-01-19T02:49:01;0.44;93.31
70271;SHT31;57680;54.292;18.598;2023-01-19T02:51:27;0.38;93.31
70271;SHT31;57680;54.292;18.598;2023-01-19T02:54:12;0.41;94.07
70271;SHT31;57680;54.292;18.598;2023-01-19T03:10:49;0.33;92.81
70271;SHT31;57680;54.292;18.598;2023-01-19T03:16:20;0.19;92.07
70271;SHT31;57680;54.292;18.598;2023-01-19T03:18:55;0.14;91.81
70271;SHT31;57680;54.292;18.598;2023-01-19T03:21:25;0.08;92.07
70271;SHT31;57680;54.292;18.598;2023-01-19T03:23:54;0.07;92.31
70271;SHT31;57680;54.292;18.598;2023-01-19T03:26:26;0.11;92.51
70271;SHT31;57680;54.292;18.598;2023-01-19T03:28:56;0.10;92.44
70271;SHT31;57680;54.292;18.598;2023-01-19T03:31:24;0.15;93.25
70271;SHT31;57680;54.292;18.598;2023-01-19T03:33:58;0.24;93.28
70271;SHT31;57680;54.292;18.598;2023-01-19T03:36:57;0.33;93.38
70271;SHT31;57680;54.292;18.598;2023-01-19T03:39:22;0.45;93.03
70271;SHT31;57680;54.292;18.598;2023-01-19T03:41:52;0.46;92.33
70271;SHT31;57680;54.292;18.598;2023-01-19T03:44:19;0.46;92.38
70271;SHT31;57680;54.292;18.598;2023-01-19T03:46:46;0.46;92.39
70271;SHT31;57680;54.292;18.598;2023-01-19T03:49:12;0.45;92.30
70271;SHT31;57680;54.292;18.598;2023-01-19T03:51:39;0.49;92.22
70271;SHT31;57680;54.292;18.598;2023-01-19T03:54:06;0.48;92.20
70271;SHT31;57680;54.292;18.598;2023-01-19T03:56:32;0.49;92.08
70271;SHT31;57680;54.292;18.598;2023-01-19T03:58:57;0.50;92.07
70271;SHT31;57680;54.292;18.598;2023-01-19T04:01:23;0.50;91.85
70271;SHT31;57680;54.292;18.598;2023-01-19T04:03:51;0.55;91.85
70271;SHT31;57680;54.292;18.598;2023-01-19T04:06:18;0.52;91.71
70271;SHT31;57680;54.292;18.598;2023-01-19T04:08:46;0.55;91.66
70271;SHT31;57680;54.292;18.598;2023-01-19T04:11:13;0.56;91.58
70271;SHT31;57680;54.292;18.598;2023-01-19T04:13:39;0.55;91.54
70271;SHT31;57680;54.292;18.598;2023-01-19T04:16:05;0.58;91.48
70271;SHT31;57680;54.292;18.598;2023-01-19T04:18:32;0.59;91.33
70271;SHT31;57680;54.292;18.598;2023-01-19T04:21:02;0.59;91.23
70271;SHT31;57680;54.292;18.598;2023-01-19T04:23:28;0.59;91.01
70271;SHT31;57680;54.292;18.598;2023-01-19T04:25:59;0.58;90.76
70271;SHT31;57680;54.292;18.598;2023-01-19T04:28:25;0.55;90.72
70271;SHT31;57680;54.292;18.598;2023-01-19T04:30:54;0.55;90.68
70271;SHT31;57680;54.292;18.598;2023-01-19T04:33:20;0.53;90.60
70271;SHT31;57680;54.292;18.598;2023-01-19T04:35:48;0.50;90.58
70271;SHT31;57680;54.292;18.598;2023-01-19T04:38:14;0.48;90.53
70271;SHT31;57680;54.292;18.598;2023-01-19T04:40:39;0.46;90.56
70271;SHT31;57680;54.292;18.598;2023-01-19T04:43:06;0.42;90.46
70271;SHT31;57680;54.292;18.598;2023-01-19T04:45:32;0.33;90.56
70271;SHT31;57680;54.292;18.598;2023-01-19T04:47:58;0.25;90.58
70271;SHT31;57680;54.292;18.598;2023-01-19T04:50:25;0.19;90.61
70271;SHT31;57680;54.292;18.598;2023-01-19T04:52:50;0.12;90.91
70271;SHT31;57680;54.292;18.598;2023-01-19T04:55:16;0.04;90.65
70271;SHT31;57680;54.292;18.598;2023-01-19T04:57:42;-0.06;91.37
70271;SHT31;57680;54.292;18.598;2023-01-19T05:00:09;-0.14;91.92
70271;SHT31;57680;54.292;18.598;2023-01-19T05:02:35;-0.05;93.20
70271;SHT31;57680;54.292;18.598;2023-01-19T05:05:01;-0.09;92.63
70271;SHT31;57680;54.292;18.598;2023-01-19T05:07:27;-0.12;92.29
70271;SHT31;57680;54.292;18.598;2023-01-19T05:09:52;-0.19;92.05
70271;SHT31;57680;54.292;18.598;2023-01-19T05:12:19;-0.23;92.23
70271;SHT31;57680;54.292;18.598;2023-01-19T05:14:45;-0.29;91.92
70271;SHT31;57680;54.292;18.598;2023-01-19T05:17:10;-0.37;92.01
70271;SHT31;57680;54.292;18.598;2023-01-19T05:19:36;-0.43;91.92
70271;SHT31;57680;54.292;18.598;2023-01-19T05:22:03;-0.50;92.23
70271;SHT31;57680;54.292;18.598;2023-01-19T05:24:29;-0.56;92.39
70271;SHT31;57680;54.292;18.598;2023-01-19T05:26:55;-0.61;92.37
70271;SHT31;57680;54.292;18.598;2023-01-19T05:29:21;-0.70;92.46
70271;SHT31;57680;54.292;18.598;2023-01-19T05:31:46;-0.74;92.65
70271;SHT31;57680;54.292;18.598;2023-01-19T05:34:13;-0.77;92.74
70271;SHT31;57680;54.292;18.598;2023-01-19T05:36:41;-0.80;92.96
70271;SHT31;57680;54.292;18.598;2023-01-19T05:39:09;-0.82;92.83
70271;SHT31;57680;54.292;18.598;2023-01-19T05:41:35;-0.81;92.84
70271;SHT31;57680;54.292;18.598;2023-01-19T05:44:01;-0.88;92.61
70271;SHT31;57680;54.292;18.598;2023-01-19T05:46:26;-0.93;92.76
70271;SHT31;57680;54.292;18.598;2023-01-19T05:48:52;-0.95;93.02
70271;SHT31;57680;54.292;18.598;2023-01-19T05:51:18;-0.96;93.08
70271;SHT31;57680;54.292;18.598;2023-01-19T05:53:44;-1.03;92.98
70271;SHT31;57680;54.292;18.598;2023-01-19T05:56:10;-1.05;93.26
70271;SHT31;57680;54.292;18.598;2023-01-19T05:58:36;-1.11;93.14
70271;SHT31;57680;54.292;18.598;2023-01-19T06:01:06;-1.16;93.19
70271;SHT31;57680;54.292;18.598;2023-01-19T06:03:34;-1.23;92.97
70271;SHT31;57680;54.292;18.598;2023-01-19T06:06:02;-1.26;93.53
70271;SHT31;57680;54.292;18.598;2023-01-19T06:08:28;-1.26;93.55
70271;SHT31;57680;54.292;18.598;2023-01-19T06:10:54;-1.38;93.56
70271;SHT31;57680;54.292;18.598;2023-01-19T06:13:20;-1.43;93.65
70271;SHT31;57680;54.292;18.598;2023-01-19T06:15:46;-1.53;93.06
70271;SHT31;57680;54.292;18.598;2023-01-19T06:18:12;-1.63;93.21
70271;SHT31;57680;54.292;18.598;2023-01-19T06:20:41;-1.70;93.84
70271;SHT31;57680;54.292;18.598;2023-01-19T06:23:07;-1.74;94.28
70271;SHT31;57680;54.292;18.598;2023-01-19T06:25:33;-1.64;95.79
70271;SHT31;57680;54.292;18.598;2023-01-19T06:27:58;-1.63;95.15
70271;SHT31;57680;54.292;18.598;2023-01-19T06:30:24;-1.60;95.03
70271;SHT31;57680;54.292;18.598;2023-01-19T06:32:52;-1.66;94.84
70271;SHT31;57680;54.292;18.598;2023-01-19T06:35:17;-1.61;94.99
70271;SHT31;57680;54.292;18.598;2023-01-19T06:37:43;-1.61;94.95
70271;SHT31;57680;54.292;18.598;2023-01-19T06:40:09;-1.60;95.20
70271;SHT31;57680;54.292;18.598;2023-01-19T06:42:36;-1.60;95.25
70271;SHT31;57680;54.292;18.598;2023-01-19T06:45:01;-1.51;95.72
70271;SHT31;57680;54.292;18.598;2023-01-19T06:47:27;-1.36;95.60
70271;SHT31;57680;54.292;18.598;2023-01-19T06:49:53;-1.35;95.36
70271;SHT31;57680;54.292;18.598;2023-01-19T06:52:19;-1.30;95.73
70271;SHT31;57680;54.292;18.598;2023-01-19T06:54:45;-1.25;95.33
70271;SHT31;57680;54.292;18.598;2023-01-19T06:57:12;-1.23;95.27
70271;SHT31;57680;54.292;18.598;2023-01-19T06:59:38;-1.25;94.81
70271;SHT31;57680;54.292;18.598;2023-01-19T07:02:05;-1.23;95.12
70271;SHT31;57680;54.292;18.598;2023-01-19T07:04:31;-1.22;94.95
70271;SHT31;57680;54.292;18.598;2023-01-19T07:06:56;-1.22;94.72
70271;SHT31;57680;54.292;18.598;2023-01-19T07:09:22;-1.25;94.75
70271;SHT31;57680;54.292;18.598;2023-01-19T07:11:49;-1.23;94.71
70271;SHT31;57680;54.292;18.598;2023-01-19T07:14:15;-1.29;94.69
70271;SHT31;57680;54.292;18.598;2023-01-19T07:16:41;-1.33;94.80
70271;SHT31;57680;54.292;18.598;2023-01-19T07:19:07;-1.36;94.69
70271;SHT31;57680;54.292;18.598;2023-01-19T07:21:35;-1.42;94.68
70271;SHT31;57680;54.292;18.598;2023-01-19T07:24:01;-1.46;94.57
70271;SHT31;57680;54.292;18.598;2023-01-19T07:26:27;-1.56;94.37
70271;SHT31;57680;54.292;18.598;2023-01-19T07:28:52;-1.59;95.05
70271;SHT31;57680;54.292;18.598;2023-01-19T07:31:19;-1.57;95.18
70271;SHT31;57680;54.292;18.598;2023-01-19T07:33:45;-1.56;95.54
70271;SHT31;57680;54.292;18.598;2023-01-19T07:36:11;-1.50;95.74
70271;SHT31;57680;54.292;18.598;2023-01-19T07:38:37;-1.40;96.30
70271;SHT31;57680;54.292;18.598;2023-01-19T07:41:03;-1.28;96.55
70271;SHT31;57680;54.292;18.598;2023-01-19T07:43:30;-1.26;96.28
70271;SHT31;57680;54.292;18.598;2023-01-19T07:45:57;-1.25;96.30
70271;SHT31;57680;54.292;18.598;2023-01-19T07:48:22;-1.20;96.40
70271;SHT31;57680;54.292;18.598;2023-01-19T07:50:48;-1.11;96.35
70271;SHT31;57680;54.292;18.598;2023-01-19T07:53:14;-1.06;96.35
70271;SHT31;57680;54.292;18.598;2023-01-19T07:55:41;-1.02;96.34
70271;SHT31;57680;54.292;18.598;2023-01-19T07:58:06;-0.96;96.28
70271;SHT31;57680;54.292;18.598;2023-01-19T08:00:35;-0.92;96.31
70271;SHT31;57680;54.292;18.598;2023-01-19T08:03:01;-0.82;96.37
70271;SHT31;57680;54.292;18.598;2023-01-19T08:05:28;-0.72;96.38
70271;SHT31;57680;54.292;18.598;2023-01-19T08:07:55;-0.61;96.16
70271;SHT31;57680;54.292;18.598;2023-01-19T08:10:22;-0.53;96.12
70271;SHT31;57680;54.292;18.598;2023-01-19T08:12:50;-0.44;95.99
70271;SHT31;57680;54.292;18.598;2023-01-19T08:15:17;-0.41;95.71
70271;SHT31;57680;54.292;18.598;2023-01-19T08:17:42;-0.34;95.36
70271;SHT31;57680;54.292;18.598;2023-01-19T08:20:08;-0.37;95.14
70271;SHT31;57680;54.292;18.598;2023-01-19T08:22:35;-0.36;94.97
70271;SHT31;57680;54.292;18.598;2023-01-19T08:25:01;-0.36;94.65
70271;SHT31;57680;54.292;18.598;2023-01-19T08:27:26;-0.41;94.45
70271;SHT31;57680;54.292;18.598;2023-01-19T08:29:53;-0.44;94.32
70271;SHT31;57680;54.292;18.598;2023-01-19T08:32:18;-0.50;94.19
70271;SHT31;57680;54.292;18.598;2023-01-19T08:34:44;-0.51;94.03
70271;SHT31;57680;54.292;18.598;2023-01-19T08:37:10;-0.54;93.69
70271;SHT31;57680;54.292;18.598;2023-01-19T08:39:35;-0.56;93.61
70271;SHT31;57680;54.292;18.598;2023-01-19T08:42:01;-0.57;93.44
70271;SHT31;57680;54.292;18.598;2023-01-19T08:44:26;-0.51;93.34
70271;SHT31;57680;54.292;18.598;2023-01-19T08:46:52;-0.57;93.14
70271;SHT31;57680;54.292;18.598;2023-01-19T08:49:18;-0.50;94.21
70271;SHT31;57680;54.292;18.598;2023-01-19T08:51:44;-0.37;94.48
70271;SHT31;57680;54.292;18.598;2023-01-19T08:54:13;-0.16;95.19
70271;SHT31;57680;54.292;18.598;2023-01-19T08:56:40;-0.05;94.55
70271;SHT31;57680;54.292;18.598;2023-01-19T08:59:05;0.12;94.04
70271;SHT31;57680;54.292;18.598;2023-01-19T09:01:31;0.26;93.54
70271;SHT31;57680;54.292;18.598;2023-01-19T09:03:57;0.52;93.94
70271;SHT31;57680;54.292;18.598;2023-01-19T09:06:22;0.58;93.26
70271;SHT31;57680;54.292;18.598;2023-01-19T09:08:49;0.60;92.73
70271;SHT31;57680;54.292;18.598;2023-01-19T09:11:15;0.65;92.49
70271;SHT31;57680;54.292;18.598;2023-01-19T09:13:42;0.68;92.01
70271;SHT31;57680;54.292;18.598;2023-01-19T09:16:08;0.70;92.01
70271;SHT31;57680;54.292;18.598;2023-01-19T09:18:34;0.79;91.86
70271;SHT31;57680;54.292;18.598;2023-01-19T09:21:01;0.89;91.19
70271;SHT31;57680;54.292;18.598;2023-01-19T09:23:26;0.97;90.92
70271;SHT31;57680;54.292;18.598;2023-01-19T09:25:57;0.94;90.20
70271;SHT31;57680;54.292;18.598;2023-01-19T09:28:24;0.96;90.36
70271;SHT31;57680;54.292;18.598;2023-01-19T09:30:50;1.00;90.15
70271;SHT31;57680;54.292;18.598;2023-01-19T09:33:17;1.04;90.35
70271;SHT31;57680;54.292;18.598;2023-01-19T09:35:46;1.05;89.84
70271;SHT31;57680;54.292;18.598;2023-01-19T09:38:14;1.14;89.83
70271;SHT31;57680;54.292;18.598;2023-01-19T09:40:54;1.21;89.81
70271;SHT31;57680;54.292;18.598;2023-01-19T09:43:43;1.34;89.87
70271;SHT31;57680;54.292;18.598;2023-01-19T09:46:15;1.40;89.77
70271;SHT31;57680;54.292;18.598;2023-01-19T09:48:53;1.48;89.19
70271;SHT31;57680;54.292;18.598;2023-01-19T09:51:24;1.47;88.97
70271;SHT31;57680;54.292;18.598;2023-01-19T09:54:35;1.50;88.84
70271;SHT31;57680;54.292;18.598;2023-01-19T09:56:43;1.55;88.45
70271;SHT31;57680;54.292;18.598;2023-01-19T09:59:24;1.69;88.48
70271;SHT31;57680;54.292;18.598;2023-01-19T10:04:33;1.82;87.72
70271;SHT31;57680;54.292;18.598;2023-01-19T10:18:12;1.96;86.64
70271;SHT31;57680;54.292;18.598;2023-01-19T10:21:03;2.07;86.34
70271;SHT31;57680;54.292;18.598;2023-01-19T10:26:28;2.30;85.41
70271;SHT31;57680;54.292;18.598;2023-01-19T10:29:23;2.34;85.36
70271;SHT31;57680;54.292;18.598;2023-01-19T10:31:51;2.42;85.44
70271;SHT31;57680;54.292;18.598;2023-01-19T10:34:17;2.42;84.69
70271;SHT31;57680;54.292;18.598;2023-01-19T10:36:51;2.40;84.77
70271;SHT31;57680;54.292;18.598;2023-01-19T10:39:19;2.42;85.10
70271;SHT31;57680;54.292;18.598;2023-01-19T10:41:50;2.45;85.59
70271;SHT31;57680;54.292;18.598;2023-01-19T10:46:50;2.33;84.52
70271;SHT31;57680;54.292;18.598;2023-01-19T10:49:34;2.40;84.32
70271;SHT31;57680;54.292;18.598;2023-01-19T10:52:01;2.50;83.86
70271;SHT31;57680;54.292;18.598;2023-01-19T10:54:29;2.60;83.46
70271;SHT31;57680;54.292;18.598;2023-01-19T10:56:57;2.71;84.16
70271;SHT31;57680;54.292;18.598;2023-01-19T10:59:38;2.82;84.19
70271;SHT31;57680;54.292;18.598;2023-01-19T11:02:16;2.92;83.93
70271;SHT31;57680;54.292;18.598;2023-01-19T11:04:43;2.99;82.81
70271;SHT31;57680;54.292;18.598;2023-01-19T11:07:29;3.09;82.35
70271;SHT31;57680;54.292;18.598;2023-01-19T11:12:59;3.23;82.43
70271;SHT31;57680;54.292;18.598;2023-01-19T11:15:34;3.37;82.74
70271;SHT31;57680;54.292;18.598;2023-01-19T11:18:05;3.46;81.44
70271;SHT31;57680;54.292;18.598;2023-01-19T11:20:48;3.51;81.09
70271;SHT31;57680;54.292;18.598;2023-01-19T11:25:46;3.71;80.83
70271;SHT31;57680;54.292;18.598;2023-01-19T11:28:28;3.71;80.23
70271;SHT31;57680;54.292;18.598;2023-01-19T11:31:00;3.74;79.84
70271;SHT31;57680;54.292;18.598;2023-01-19T11:33:53;3.75;79.53
70271;SHT31;57680;54.292;18.598;2023-01-19T11:36:25;3.50;79.31
70271;SHT31;57680;54.292;18.598;2023-01-19T11:38:53;3.23;80.06
70271;SHT31;57680;54.292;18.598;2023-01-19T11:41:33;3.01;80.55
70271;SHT31;57680;54.292;18.598;2023-01-19T11:44:22;2.87;81.10
70271;SHT31;57680;54.292;18.598;2023-01-19T11:47:01;2.81;81.64
70271;SHT31;57680;54.292;18.598;2023-01-19T11:49:43;2.81;81.82
70271;SHT31;57680;54.292;18.598;2023-01-19T11:52:30;2.80;81.77
70271;SHT31;57680;54.292;18.598;2023-01-19T11:57:47;2.99;81.75
70271;SHT31;57680;54.292;18.598;2023-01-19T12:00:26;3.06;81.75
70271;SHT31;57680;54.292;18.598;2023-01-19T12:03:09;3.08;81.55
70271;SHT31;57680;54.292;18.598;2023-01-19T12:05:45;2.98;81.67
70271;SHT31;57680;54.292;18.598;2023-01-19T12:08:17;2.92;81.61
70271;SHT31;57680;54.292;18.598;2023-01-19T12:10:46;2.95;81.42
70271;SHT31;57680;54.292;18.598;2023-01-19T12:13:25;3.06;81.53
70271;SHT31;57680;54.292;18.598;2023-01-19T12:16:09;3.13;81.71
70271;SHT31;57680;54.292;18.598;2023-01-19T12:18:43;3.22;81.62
70271;SHT31;57680;54.292;18.598;2023-01-19T12:21:11;3.27;80.64
70271;SHT31;57680;54.292;18.598;2023-01-19T12:23:49;3.39;80.79
70271;SHT31;57680;54.292;18.598;2023-01-19T12:26:25;3.40;80.32
70271;SHT31;57680;54.292;18.598;2023-01-19T12:28:55;3.40;79.51
70271;SHT31;57680;54.292;18.598;2023-01-19T12:31:23;3.30;79.57
70271;SHT31;57680;54.292;18.598;2023-01-19T12:33:49;3.23;79.95
70271;SHT31;57680;54.292;18.598;2023-01-19T12:41:35;3.05;81.12
70271;SHT31;57680;54.292;18.598;2023-01-19T12:46:45;3.05;81.16
70271;SHT31;57680;54.292;18.598;2023-01-19T13:13:36;2.34;83.12
70271;SHT31;57680;54.292;18.598;2023-01-19T13:24:09;2.03;84.10
70271;SHT31;57680;54.292;18.598;2023-01-19T13:26:37;1.95;84.25
70271;SHT31;57680;54.292;18.598;2023-01-19T13:31:34;1.85;84.86
70271;SHT31;57680;54.292;18.598;2023-01-19T13:34:01;1.83;85.24
70271;SHT31;57680;54.292;18.598;2023-01-19T13:36:34;1.82;85.29
70271;SHT31;57680;54.292;18.598;2023-01-19T13:39:06;1.81;85.57
70271;SHT31;57680;54.292;18.598;2023-01-19T13:41:38;1.81;85.62
70271;SHT31;57680;54.292;18.598;2023-01-19T13:44:13;1.82;85.67
70271;SHT31;57680;54.292;18.598;2023-01-19T13:46:41;1.79;85.70
70271;SHT31;57680;54.292;18.598;2023-01-19T13:49:28;1.79;86.04
70271;SHT31;57680;54.292;18.598;2023-01-19T14:05:34;1.81;86.34
70271;SHT31;57680;54.292;18.598;2023-01-19T14:10:28;1.82;86.70
70271;SHT31;57680;54.292;18.598;2023-01-19T14:13:20;1.81;86.66
70271;SHT31;57680;54.292;18.598;2023-01-19T14:15:48;1.81;86.76
70271;SHT31;57680;54.292;18.598;2023-01-19T14:20:54;1.79;86.93
70271;SHT31;57680;54.292;18.598;2023-01-19T14:23:40;1.79;86.82
70271;SHT31;57680;54.292;18.598;2023-01-19T14:26:43;1.79;87.13
70271;SHT31;57680;54.292;18.598;2023-01-19T14:29:28;1.79;87.32
70271;SHT31;57680;54.292;18.598;2023-01-19T14:37:01;1.83;87.17
70271;SHT31;57680;54.292;18.598;2023-01-19T14:39:30;1.82;87.21
70271;SHT31;57680;54.292;18.598;2023-01-19T14:41:59;1.81;86.98
70271;SHT31;57680;54.292;18.598;2023-01-19T14:44:29;1.78;86.92
70271;SHT31;57680;54.292;18.598;2023-01-19T14:46:55;1.76;87.05
70271;SHT31;57680;54.292;18.598;2023-01-19T14:49:33;1.72;87.15
70271;SHT31;57680;54.292;18.598;2023-01-19T14:52:14;1.73;87.28
70271;SHT31;57680;54.292;18.598;2023-01-19T14:54:43;1.71;87.40
70271;SHT31;57680;54.292;18.598;2023-01-19T14:57:11;1.68;87.46
70271;SHT31;57680;54.292;18.598;2023-01-19T14:59:37;1.66;87.58
70271;SHT31;57680;54.292;18.598;2023-01-19T15:02:04;1.68;87.70
70271;SHT31;57680;54.292;18.598;2023-01-19T15:04:30;1.65;87.83
70271;SHT31;57680;54.292;18.598;2023-01-19T15:06:56;1.66;87.93
70271;SHT31;57680;54.292;18.598;2023-01-19T15:09:22;1.66;88.12
70271;SHT31;57680;54.292;18.598;2023-01-19T15:11:48;1.65;88.12
70271;SHT31;57680;54.292;18.598;2023-01-19T15:14:15;1.61;88.29
70271;SHT31;57680;54.292;18.598;2023-01-19T15:16:41;1.61;88.53
70271;SHT31;57680;54.292;18.598;2023-01-19T15:19:15;1.55;89.25
70271;SHT31;57680;54.292;18.598;2023-01-19T15:21:41;1.54;89.37
70271;SHT31;57680;54.292;18.598;2023-01-19T15:24:09;1.51;89.64
70271;SHT31;57680;54.292;18.598;2023-01-19T15:26:38;1.48;89.83
70271;SHT31;57680;54.292;18.598;2023-01-19T15:29:21;1.50;90.11
70271;SHT31;57680;54.292;18.598;2023-01-19T15:31:47;1.45;90.45
70271;SHT31;57680;54.292;18.598;2023-01-19T15:34:13;1.44;90.63
70271;SHT31;57680;54.292;18.598;2023-01-19T15:36:41;1.41;90.79
70271;SHT31;57680;54.292;18.598;2023-01-19T15:39:13;1.44;90.94
70271;SHT31;57680;54.292;18.598;2023-01-19T15:41:38;1.45;90.85
70271;SHT31;57680;54.292;18.598;2023-01-19T15:44:05;1.45;90.84
70271;SHT31;57680;54.292;18.598;2023-01-19T15:46:32;1.47;90.89
70271;SHT31;57680;54.292;18.598;2023-01-19T15:48:58;1.47;90.96
70271;SHT31;57680;54.292;18.598;2023-01-19T15:51:25;1.45;90.93
70271;SHT31;57680;54.292;18.598;2023-01-19T15:53:51;1.40;91.13
70271;SHT31;57680;54.292;18.598;2023-01-19T15:56:20;1.37;91.38
70271;SHT31;57680;54.292;18.598;2023-01-19T15:58:47;1.35;91.37
70271;SHT31;57680;54.292;18.598;2023-01-19T16:01:15;1.28;91.69
70271;SHT31;57680;54.292;18.598;2023-01-19T16:03:41;1.21;91.89
70271;SHT31;57680;54.292;18.598;2023-01-19T16:06:08;1.17;92.00
70271;SHT31;57680;54.292;18.598;2023-01-19T16:08:34;1.13;92.17
70271;SHT31;57680;54.292;18.598;2023-01-19T16:11:09;1.10;92.34
70271;SHT31;57680;54.292;18.598;2023-01-19T16:13:35;1.04;92.42
70271;SHT31;57680;54.292;18.598;2023-01-19T16:16:16;1.03;92.73
70271;SHT31;57680;54.292;18.598;2023-01-19T16:18:42;0.97;92.55
70271;SHT31;57680;54.292;18.598;2023-01-19T16:21:08;1.01;92.84
70271;SHT31;57680;54.292;18.598;2023-01-19T16:23:33;0.96;92.97
70271;SHT31;57680;54.292;18.598;2023-01-19T16:26:03;0.94;93.24
70271;SHT31;57680;54.292;18.598;2023-01-19T16:28:33;1.08;95.23
70271;SHT31;57680;54.292;18.598;2023-01-19T16:31:00;1.04;94.00
70271;SHT31;57680;54.292;18.598;2023-01-19T16:33:26;0.96;93.77
70271;SHT31;57680;54.292;18.598;2023-01-19T16:35:52;0.90;93.83
70271;SHT31;57680;54.292;18.598;2023-01-19T16:38:17;0.84;93.89
70271;SHT31;57680;54.292;18.598;2023-01-19T16:40:44;0.79;94.02
70271;SHT31;57680;54.292;18.598;2023-01-19T16:43:11;0.77;94.23
70271;SHT31;57680;54.292;18.598;2023-01-19T16:45:58;0.75;94.37
70271;SHT31;57680;54.292;18.598;2023-01-19T16:48:25;0.73;94.56
70271;SHT31;57680;54.292;18.598;2023-01-19T16:50:58;0.69;94.59
70271;SHT31;57680;54.292;18.598;2023-01-19T16:53:26;0.66;94.67
70271;SHT31;57680;54.292;18.598;2023-01-19T16:55:51;0.63;94.72
70271;SHT31;57680;54.292;18.598;2023-01-19T16:58:17;0.63;94.99
70271;SHT31;57680;54.292;18.598;2023-01-19T17:00:43;0.60;95.21
70271;SHT31;57680;54.292;18.598;2023-01-19T17:03:09;0.60;95.17
70271;SHT31;57680;54.292;18.598;2023-01-19T17:05:35;0.59;95.31
70271;SHT31;57680;54.292;18.598;2023-01-19T17:08:00;0.60;95.42
70271;SHT31;57680;54.292;18.598;2023-01-19T17:10:26;0.65;95.41
70271;SHT31;57680;54.292;18.598;2023-01-19T17:12:52;0.66;95.56
70271;SHT31;57680;54.292;18.598;2023-01-19T17:15:17;0.69;95.53
70271;SHT31;57680;54.292;18.598;2023-01-19T17:17:44;0.70;95.60
70271;SHT31;57680;54.292;18.598;2023-01-19T17:20:10;0.75;95.61
70271;SHT31;57680;54.292;18.598;2023-01-19T17:22:35;0.79;95.66
70271;SHT31;57680;54.292;18.598;2023-01-19T17:25:01;0.84;95.64
70271;SHT31;57680;54.292;18.598;2023-01-19T17:27:27;0.86;95.63
70271;SHT31;57680;54.292;18.598;2023-01-19T17:29:55;0.87;95.58
70271;SHT31;57680;54.292;18.598;2023-01-19T17:32:21;0.86;95.40